sensor_id;sensor_type;location;lat;lon;timestamp;P1;durP1;ratioP1;P2;durP2;ratioP2
12407;SDS011;6268;48.188;17.134;2022-08-01T00:00:10;3.53;;;3.33;;
12407;SDS011;6268;48.188;17.134;2022-08-01T00:02:39;4.10;;;3.90;;
12407;SDS011;6268;48.188;17.134;2022-08-01T00:05:08;4.13;;;3.70;;
12407;SDS011;6268;48.188;17.134;2022-08-01T00:07:38;3.42;;;3.22;;
12407;SDS011;6268;48.188;17.134;2022-08-01T00:10:09;3.80;;;3.50;;
12407;SDS011;6268;48.188;17.134;2022-08-01T00:12:41;5.80;;;3.25;;
12407;SDS011;6268;48.188;17.134;2022-08-01T00:15:12;3.80;;;3.60;;
12407;SDS011;6268;48.188;17.134;2022-08-01T00:17:43;4.45;;;4.05;;
12407;SDS011;6268;48.188;17.134;2022-08-01T00:20:13;4.53;;;4.22;;
12407;SDS011;6268;48.188;17.134;2022-08-01T00:22:42;5.57;;;5.20;;
12407;SDS011;6268;48.188;17.134;2022-08-01T00:25:12;5.15;;;4.72;;
12407;SDS011;6268;48.188;17.134;2022-08-01T00:27:41;4.65;;;4.25;;
12407;SDS011;6268;48.188;17.134;2022-08-01T00:30:09;4.80;;;4.47;;
12407;SDS011;6268;48.188;17.134;2022-08-01T00:32:40;5.20;;;4.80;;
12407;SDS011;6268;48.188;17.134;2022-08-01T00:35:09;5.22;;;4.78;;
12407;SDS011;6268;48.188;17.134;2022-08-01T00:37:39;4.85;;;4.43;;
12407;SDS011;6268;48.188;17.134;2022-08-01T00:40:08;4.63;;;4.43;;
12407;SDS011;6268;48.188;17.134;2022-08-01T00:42:39;5.03;;;4.68;;
12407;SDS011;6268;48.188;17.134;2022-08-01T00:45:09;5.22;;;4.93;;
12407;SDS011;6268;48.188;17.134;2022-08-01T00:47:39;5.60;;;5.20;;
12407;SDS011;6268;48.188;17.134;2022-08-01T00:50:08;5.97;;;5.57;;
12407;SDS011;6268;48.188;17.134;2022-08-01T00:52:38;5.80;;;5.50;;
12407;SDS011;6268;48.188;17.134;2022-08-01T00:55:16;5.55;;;5.15;;
12407;SDS011;6268;48.188;17.134;2022-08-01T00:57:48;5.30;;;5.00;;
12407;SDS011;6268;48.188;17.134;2022-08-01T01:00:32;4.40;;;4.20;;
12407;SDS011;6268;48.188;17.134;2022-08-01T01:03:20;4.75;;;3.78;;
12407;SDS011;6268;48.188;17.134;2022-08-01T01:06:17;4.28;;;3.97;;
12407;SDS011;6268;48.188;17.134;2022-08-01T01:09:15;3.92;;;3.70;;
12407;SDS011;6268;48.188;17.134;2022-08-01T01:12:01;4.05;;;3.85;;
12407;SDS011;6268;48.188;17.134;2022-08-01T01:14:44;4.47;;;4.10;;
12407;SDS011;6268;48.188;17.134;2022-08-01T01:17:21;6.10;;;5.70;;
12407;SDS011;6268;48.188;17.134;2022-08-01T01:20:16;4.97;;;4.57;;
12407;SDS011;6268;48.188;17.134;2022-08-01T01:22:53;5.70;;;5.30;;
12407;SDS011;6268;48.188;17.134;2022-08-01T01:25:51;5.25;;;4.90;;
12407;SDS011;6268;48.188;17.134;2022-08-01T01:28:40;5.35;;;4.82;;
12407;SDS011;6268;48.188;17.134;2022-08-01T01:31:29;5.22;;;4.70;;
12407;SDS011;6268;48.188;17.134;2022-08-01T01:34:03;6.50;;;5.88;;
12407;SDS011;6268;48.188;17.134;2022-08-01T01:36:34;5.60;;;5.22;;
12407;SDS011;6268;48.188;17.134;2022-08-01T01:39:05;5.88;;;5.00;;
12407;SDS011;6268;48.188;17.134;2022-08-01T01:41:35;5.03;;;4.72;;
12407;SDS011;6268;48.188;17.134;2022-08-01T01:44:07;4.38;;;4.10;;
12407;SDS011;6268;48.188;17.134;2022-08-01T01:46:38;4.13;;;3.92;;
12407;SDS011;6268;48.188;17.134;2022-08-01T01:49:08;4.50;;;4.15;;
12407;SDS011;6268;48.188;17.134;2022-08-01T01:51:40;4.22;;;4.03;;
12407;SDS011;6268;48.188;17.134;2022-08-01T01:54:28;3.85;;;3.65;;
12407;SDS011;6268;48.188;17.134;2022-08-01T01:57:00;4.15;;;3.85;;
12407;SDS011;6268;48.188;17.134;2022-08-01T01:59:34;4.88;;;4.57;;
12407;SDS011;6268;48.188;17.134;2022-08-01T02:02:07;4.15;;;3.85;;
12407;SDS011;6268;48.188;17.134;2022-08-01T02:04:40;3.80;;;3.53;;
12407;SDS011;6268;48.188;17.134;2022-08-01T02:07:14;5.90;;;4.85;;
12407;SDS011;6268;48.188;17.134;2022-08-01T02:09:49;6.93;;;6.32;;
12407;SDS011;6268;48.188;17.134;2022-08-01T02:12:21;5.47;;;5.07;;
12407;SDS011;6268;48.188;17.134;2022-08-01T02:14:53;6.55;;;5.72;;
12407;SDS011;6268;48.188;17.134;2022-08-01T02:17:23;8.23;;;6.10;;
12407;SDS011;6268;48.188;17.134;2022-08-01T02:19:54;6.40;;;5.82;;
12407;SDS011;6268;48.188;17.134;2022-08-01T02:22:25;6.85;;;6.20;;
12407;SDS011;6268;48.188;17.134;2022-08-01T02:24:59;5.22;;;4.80;;
12407;SDS011;6268;48.188;17.134;2022-08-01T02:27:39;5.95;;;5.55;;
12407;SDS011;6268;48.188;17.134;2022-08-01T02:30:16;7.13;;;6.65;;
12407;SDS011;6268;48.188;17.134;2022-08-01T02:32:48;8.93;;;8.07;;
12407;SDS011;6268;48.188;17.134;2022-08-01T02:35:27;7.03;;;6.50;;
12407;SDS011;6268;48.188;17.134;2022-08-01T02:38:20;4.82;;;4.53;;
12407;SDS011;6268;48.188;17.134;2022-08-01T02:40:54;5.10;;;4.68;;
12407;SDS011;6268;48.188;17.134;2022-08-01T02:43:27;5.18;;;4.30;;
12407;SDS011;6268;48.188;17.134;2022-08-01T02:46:02;8.35;;;4.40;;
12407;SDS011;6268;48.188;17.134;2022-08-01T02:48:37;5.75;;;5.20;;
12407;SDS011;6268;48.188;17.134;2022-08-01T02:51:08;5.47;;;4.75;;
12407;SDS011;6268;48.188;17.134;2022-08-01T02:53:39;4.47;;;4.18;;
12407;SDS011;6268;48.188;17.134;2022-08-01T02:56:10;5.70;;;5.20;;
12407;SDS011;6268;48.188;17.134;2022-08-01T02:58:41;5.78;;;5.30;;
12407;SDS011;6268;48.188;17.134;2022-08-01T03:01:13;5.47;;;5.18;;
12407;SDS011;6268;48.188;17.134;2022-08-01T03:03:45;6.07;;;5.60;;
12407;SDS011;6268;48.188;17.134;2022-08-01T03:06:14;7.00;;;6.40;;
12407;SDS011;6268;48.188;17.134;2022-08-01T03:08:45;5.20;;;4.57;;
12407;SDS011;6268;48.188;17.134;2022-08-01T03:11:16;5.38;;;4.90;;
12407;SDS011;6268;48.188;17.134;2022-08-01T03:13:46;4.30;;;4.07;;
12407;SDS011;6268;48.188;17.134;2022-08-01T03:16:19;4.28;;;4.00;;
12407;SDS011;6268;48.188;17.134;2022-08-01T03:18:52;4.75;;;4.43;;
12407;SDS011;6268;48.188;17.134;2022-08-01T03:21:24;4.50;;;3.97;;
12407;SDS011;6268;48.188;17.134;2022-08-01T03:23:57;5.57;;;5.05;;
12407;SDS011;6268;48.188;17.134;2022-08-01T03:26:29;4.85;;;4.45;;
12407;SDS011;6268;48.188;17.134;2022-08-01T03:29:02;6.85;;;4.10;;
12407;SDS011;6268;48.188;17.134;2022-08-01T03:31:36;4.63;;;4.20;;
12407;SDS011;6268;48.188;17.134;2022-08-01T03:34:09;4.22;;;4.03;;
12407;SDS011;6268;48.188;17.134;2022-08-01T03:36:40;4.50;;;4.20;;
12407;SDS011;6268;48.188;17.134;2022-08-01T03:39:15;5.88;;;5.38;;
12407;SDS011;6268;48.188;17.134;2022-08-01T03:41:51;5.80;;;5.40;;
12407;SDS011;6268;48.188;17.134;2022-08-01T03:44:43;6.13;;;5.55;;
12407;SDS011;6268;48.188;17.134;2022-08-01T03:47:24;5.22;;;4.82;;
12407;SDS011;6268;48.188;17.134;2022-08-01T03:50:10;5.43;;;5.03;;
12407;SDS011;6268;48.188;17.134;2022-08-01T03:52:42;5.15;;;4.85;;
12407;SDS011;6268;48.188;17.134;2022-08-01T03:55:14;5.05;;;4.65;;
12407;SDS011;6268;48.188;17.134;2022-08-01T03:57:46;5.10;;;4.78;;
12407;SDS011;6268;48.188;17.134;2022-08-01T04:00:16;5.50;;;5.20;;
12407;SDS011;6268;48.188;17.134;2022-08-01T04:02:47;6.18;;;4.97;;
12407;SDS011;6268;48.188;17.134;2022-08-01T04:05:18;4.93;;;4.63;;
12407;SDS011;6268;48.188;17.134;2022-08-01T04:07:47;5.20;;;4.70;;
12407;SDS011;6268;48.188;17.134;2022-08-01T04:10:22;5.40;;;4.95;;
12407;SDS011;6268;48.188;17.134;2022-08-01T04:12:51;4.95;;;4.65;;
12407;SDS011;6268;48.188;17.134;2022-08-01T04:15:20;4.95;;;4.65;;
12407;SDS011;6268;48.188;17.134;2022-08-01T04:17:50;5.22;;;4.93;;
12407;SDS011;6268;48.188;17.134;2022-08-01T04:20:20;5.28;;;4.95;;
12407;SDS011;6268;48.188;17.134;2022-08-01T04:22:50;6.47;;;4.82;;
12407;SDS011;6268;48.188;17.134;2022-08-01T04:25:19;6.43;;;5.80;;
12407;SDS011;6268;48.188;17.134;2022-08-01T04:27:54;5.70;;;5.30;;
12407;SDS011;6268;48.188;17.134;2022-08-01T04:30:26;7.18;;;5.28;;
12407;SDS011;6268;48.188;17.134;2022-08-01T04:33:00;5.28;;;4.88;;
12407;SDS011;6268;48.188;17.134;2022-08-01T04:35:32;5.50;;;5.00;;
12407;SDS011;6268;48.188;17.134;2022-08-01T04:38:25;5.05;;;4.68;;
12407;SDS011;6268;48.188;17.134;2022-08-01T04:40:57;5.60;;;5.13;;
12407;SDS011;6268;48.188;17.134;2022-08-01T04:43:34;4.82;;;4.55;;
12407;SDS011;6268;48.188;17.134;2022-08-01T04:46:04;5.00;;;4.70;;
12407;SDS011;6268;48.188;17.134;2022-08-01T04:48:36;5.38;;;5.07;;
12407;SDS011;6268;48.188;17.134;2022-08-01T04:51:10;7.00;;;5.53;;
12407;SDS011;6268;48.188;17.134;2022-08-01T04:53:42;5.97;;;5.55;;
12407;SDS011;6268;48.188;17.134;2022-08-01T04:56:12;6.20;;;5.68;;
12407;SDS011;6268;48.188;17.134;2022-08-01T04:58:42;6.03;;;5.32;;
12407;SDS011;6268;48.188;17.134;2022-08-01T05:01:12;5.78;;;5.45;;
12407;SDS011;6268;48.188;17.134;2022-08-01T05:03:42;5.85;;;5.55;;
12407;SDS011;6268;48.188;17.134;2022-08-01T05:06:11;6.50;;;5.90;;
12407;SDS011;6268;48.188;17.134;2022-08-01T05:08:40;7.40;;;6.68;;
12407;SDS011;6268;48.188;17.134;2022-08-01T05:11:09;7.50;;;6.72;;
12407;SDS011;6268;48.188;17.134;2022-08-01T05:13:37;7.80;;;6.97;;
12407;SDS011;6268;48.188;17.134;2022-08-01T05:16:07;7.63;;;7.03;;
12407;SDS011;6268;48.188;17.134;2022-08-01T05:18:36;7.43;;;6.63;;
12407;SDS011;6268;48.188;17.134;2022-08-01T05:21:07;7.18;;;6.78;;
12407;SDS011;6268;48.188;17.134;2022-08-01T05:23:35;7.53;;;6.82;;
12407;SDS011;6268;48.188;17.134;2022-08-01T05:26:09;7.90;;;7.25;;
12407;SDS011;6268;48.188;17.134;2022-08-01T05:28:41;6.97;;;6.35;;
12407;SDS011;6268;48.188;17.134;2022-08-01T05:31:10;7.50;;;6.95;;
12407;SDS011;6268;48.188;17.134;2022-08-01T05:33:39;9.25;;;8.45;;
12407;SDS011;6268;48.188;17.134;2022-08-01T05:36:09;8.43;;;7.72;;
12407;SDS011;6268;48.188;17.134;2022-08-01T05:38:37;6.97;;;6.43;;
12407;SDS011;6268;48.188;17.134;2022-08-01T05:41:06;7.72;;;7.18;;
12407;SDS011;6268;48.188;17.134;2022-08-01T05:43:35;8.52;;;7.82;;
12407;SDS011;6268;48.188;17.134;2022-08-01T05:46:04;8.60;;;7.93;;
12407;SDS011;6268;48.188;17.134;2022-08-01T05:48:33;8.73;;;7.05;;
12407;SDS011;6268;48.188;17.134;2022-08-01T05:51:01;7.65;;;7.03;;
12407;SDS011;6268;48.188;17.134;2022-08-01T05:53:32;6.95;;;6.47;;
12407;SDS011;6268;48.188;17.134;2022-08-01T05:56:01;7.47;;;6.97;;
12407;SDS011;6268;48.188;17.134;2022-08-01T05:58:30;7.70;;;6.78;;
12407;SDS011;6268;48.188;17.134;2022-08-01T06:00:59;6.70;;;6.30;;
12407;SDS011;6268;48.188;17.134;2022-08-01T06:03:28;7.57;;;6.97;;
12407;SDS011;6268;48.188;17.134;2022-08-01T06:05:59;7.57;;;6.82;;
12407;SDS011;6268;48.188;17.134;2022-08-01T06:08:28;7.45;;;6.53;;
12407;SDS011;6268;48.188;17.134;2022-08-01T06:10:59;11.45;;;7.00;;
12407;SDS011;6268;48.188;17.134;2022-08-01T06:13:28;8.68;;;6.53;;
12407;SDS011;6268;48.188;17.134;2022-08-01T06:15:57;7.25;;;6.22;;
12407;SDS011;6268;48.188;17.134;2022-08-01T06:18:26;9.70;;;8.85;;
12407;SDS011;6268;48.188;17.134;2022-08-01T06:20:54;12.48;;;11.18;;
12407;SDS011;6268;48.188;17.134;2022-08-01T06:23:23;13.02;;;11.82;;
12407;SDS011;6268;48.188;17.134;2022-08-01T06:25:59;11.90;;;10.90;;
12407;SDS011;6268;48.188;17.134;2022-08-01T06:28:28;10.05;;;9.02;;
12407;SDS011;6268;48.188;17.134;2022-08-01T06:30:57;7.50;;;7.00;;
12407;SDS011;6268;48.188;17.134;2022-08-01T06:33:26;8.15;;;7.65;;
12407;SDS011;6268;48.188;17.134;2022-08-01T06:35:55;22.80;;;20.50;;
12407;SDS011;6268;48.188;17.134;2022-08-01T06:38:24;14.82;;;12.02;;
12407;SDS011;6268;48.188;17.134;2022-08-01T06:40:53;8.15;;;7.55;;
12407;SDS011;6268;48.188;17.134;2022-08-01T06:43:23;8.00;;;7.25;;
12407;SDS011;6268;48.188;17.134;2022-08-01T06:45:52;6.68;;;6.18;;
12407;SDS011;6268;48.188;17.134;2022-08-01T06:48:21;6.40;;;5.80;;
12407;SDS011;6268;48.188;17.134;2022-08-01T06:50:50;7.10;;;6.38;;
12407;SDS011;6268;48.188;17.134;2022-08-01T06:53:35;8.98;;;5.80;;
12407;SDS011;6268;48.188;17.134;2022-08-01T06:56:05;7.60;;;6.78;;
12407;SDS011;6268;48.188;17.134;2022-08-01T06:58:37;7.60;;;6.82;;
12407;SDS011;6268;48.188;17.134;2022-08-01T07:01:06;10.38;;;6.43;;
12407;SDS011;6268;48.188;17.134;2022-08-01T07:03:36;7.22;;;6.20;;
12407;SDS011;6268;48.188;17.134;2022-08-01T07:06:20;7.22;;;5.68;;
12407;SDS011;6268;48.188;17.134;2022-08-01T07:08:51;7.28;;;5.57;;
12407;SDS011;6268;48.188;17.134;2022-08-01T07:11:20;5.72;;;5.20;;
12407;SDS011;6268;48.188;17.134;2022-08-01T07:13:52;5.22;;;4.50;;
12407;SDS011;6268;48.188;17.134;2022-08-01T07:16:20;6.07;;;5.47;;
12407;SDS011;6268;48.188;17.134;2022-08-01T07:18:49;5.40;;;5.07;;
12407;SDS011;6268;48.188;17.134;2022-08-01T07:21:18;17.85;;;16.05;;
12407;SDS011;6268;48.188;17.134;2022-08-01T07:24:06;5.13;;;4.70;;
12407;SDS011;6268;48.188;17.134;2022-08-01T07:26:39;7.70;;;6.30;;
12407;SDS011;6268;48.188;17.134;2022-08-01T07:29:21;11.32;;;6.90;;
12407;SDS011;6268;48.188;17.134;2022-08-01T07:31:51;6.80;;;6.20;;
12407;SDS011;6268;48.188;17.134;2022-08-01T07:34:20;7.18;;;5.72;;
12407;SDS011;6268;48.188;17.134;2022-08-01T07:36:50;7.95;;;4.95;;
12407;SDS011;6268;48.188;17.134;2022-08-01T07:39:20;5.32;;;4.82;;
12407;SDS011;6268;48.188;17.134;2022-08-01T07:41:49;4.72;;;4.32;;
12407;SDS011;6268;48.188;17.134;2022-08-01T07:44:34;5.80;;;5.25;;
12407;SDS011;6268;48.188;17.134;2022-08-01T07:47:04;9.77;;;4.05;;
12407;SDS011;6268;48.188;17.134;2022-08-01T07:49:33;4.20;;;3.90;;
12407;SDS011;6268;48.188;17.134;2022-08-01T07:52:06;5.78;;;4.60;;
12407;SDS011;6268;48.188;17.134;2022-08-01T07:54:35;7.93;;;4.07;;
12407;SDS011;6268;48.188;17.134;2022-08-01T07:57:04;5.90;;;3.50;;
12407;SDS011;6268;48.188;17.134;2022-08-01T07:59:35;4.78;;;3.65;;
12407;SDS011;6268;48.188;17.134;2022-08-01T08:02:03;4.68;;;3.22;;
12407;SDS011;6268;48.188;17.134;2022-08-01T08:04:33;3.83;;;3.25;;
12407;SDS011;6268;48.188;17.134;2022-08-01T08:07:01;3.70;;;3.40;;
12407;SDS011;6268;48.188;17.134;2022-08-01T08:09:31;3.80;;;3.13;;
12407;SDS011;6268;48.188;17.134;2022-08-01T08:12:03;3.40;;;2.72;;
12407;SDS011;6268;48.188;17.134;2022-08-01T08:14:35;6.93;;;3.47;;
12407;SDS011;6268;48.188;17.134;2022-08-01T08:17:04;4.60;;;3.45;;
12407;SDS011;6268;48.188;17.134;2022-08-01T08:19:33;3.80;;;3.50;;
12407;SDS011;6268;48.188;17.134;2022-08-01T08:22:05;4.63;;;4.05;;
12407;SDS011;6268;48.188;17.134;2022-08-01T08:24:35;4.53;;;4.03;;
12407;SDS011;6268;48.188;17.134;2022-08-01T08:27:12;7.18;;;6.45;;
12407;SDS011;6268;48.188;17.134;2022-08-01T08:29:43;9.77;;;8.57;;
12407;SDS011;6268;48.188;17.134;2022-08-01T08:32:12;13.60;;;12.40;;
12407;SDS011;6268;48.188;17.134;2022-08-01T08:34:41;13.35;;;11.95;;
12407;SDS011;6268;48.188;17.134;2022-08-01T08:37:10;12.40;;;11.20;;
12407;SDS011;6268;48.188;17.134;2022-08-01T08:39:39;10.77;;;9.82;;
12407;SDS011;6268;48.188;17.134;2022-08-01T08:42:08;11.40;;;10.55;;
12407;SDS011;6268;48.188;17.134;2022-08-01T08:44:40;12.15;;;11.10;;
12407;SDS011;6268;48.188;17.134;2022-08-01T08:47:14;10.65;;;9.85;;
12407;SDS011;6268;48.188;17.134;2022-08-01T08:49:46;19.80;;;17.88;;
12407;SDS011;6268;48.188;17.134;2022-08-01T08:52:18;8.85;;;7.97;;
12407;SDS011;6268;48.188;17.134;2022-08-01T08:54:49;5.05;;;4.75;;
12407;SDS011;6268;48.188;17.134;2022-08-01T08:57:19;4.43;;;3.47;;
12407;SDS011;6268;48.188;17.134;2022-08-01T08:59:49;3.35;;;3.08;;
12407;SDS011;6268;48.188;17.134;2022-08-01T09:02:22;2.63;;;2.53;;
12407;SDS011;6268;48.188;17.134;2022-08-01T09:04:51;3.20;;;3.00;;
12407;SDS011;6268;48.188;17.134;2022-08-01T09:07:20;2.83;;;2.72;;
12407;SDS011;6268;48.188;17.134;2022-08-01T09:09:51;2.85;;;2.65;;
12407;SDS011;6268;48.188;17.134;2022-08-01T09:12:20;3.22;;;3.00;;
12407;SDS011;6268;48.188;17.134;2022-08-01T09:14:49;4.45;;;3.00;;
12407;SDS011;6268;48.188;17.134;2022-08-01T09:17:20;4.32;;;3.30;;
12407;SDS011;6268;48.188;17.134;2022-08-01T09:19:51;4.03;;;3.47;;
12407;SDS011;6268;48.188;17.134;2022-08-01T09:22:24;3.70;;;3.50;;
12407;SDS011;6268;48.188;17.134;2022-08-01T09:24:57;4.53;;;4.22;;
12407;SDS011;6268;48.188;17.134;2022-08-01T09:27:28;3.58;;;3.28;;
12407;SDS011;6268;48.188;17.134;2022-08-01T09:30:07;3.80;;;3.60;;
12407;SDS011;6268;48.188;17.134;2022-08-01T09:32:54;4.20;;;3.70;;
12407;SDS011;6268;48.188;17.134;2022-08-01T09:35:25;3.50;;;3.30;;
12407;SDS011;6268;48.188;17.134;2022-08-01T09:38:12;3.65;;;3.33;;
12407;SDS011;6268;48.188;17.134;2022-08-01T09:40:50;3.75;;;3.55;;
12407;SDS011;6268;48.188;17.134;2022-08-01T09:43:21;4.47;;;3.25;;
12407;SDS011;6268;48.188;17.134;2022-08-01T09:45:53;3.40;;;3.30;;
12407;SDS011;6268;48.188;17.134;2022-08-01T09:48:25;3.80;;;3.60;;
12407;SDS011;6268;48.188;17.134;2022-08-01T09:50:56;3.47;;;3.30;;
12407;SDS011;6268;48.188;17.134;2022-08-01T09:53:41;4.13;;;3.83;;
12407;SDS011;6268;48.188;17.134;2022-08-01T09:56:18;4.05;;;3.75;;
12407;SDS011;6268;48.188;17.134;2022-08-01T09:58:53;3.28;;;3.17;;
12407;SDS011;6268;48.188;17.134;2022-08-01T10:01:28;3.25;;;3.15;;
12407;SDS011;6268;48.188;17.134;2022-08-01T10:04:12;3.60;;;3.30;;
12407;SDS011;6268;48.188;17.134;2022-08-01T10:06:44;3.45;;;3.17;;
12407;SDS011;6268;48.188;17.134;2022-08-01T10:09:18;3.55;;;3.35;;
12407;SDS011;6268;48.188;17.134;2022-08-01T10:12:06;3.10;;;2.85;;
12407;SDS011;6268;48.188;17.134;2022-08-01T10:14:42;3.10;;;2.90;;
12407;SDS011;6268;48.188;17.134;2022-08-01T10:17:16;3.35;;;3.15;;
12407;SDS011;6268;48.188;17.134;2022-08-01T10:19:49;3.45;;;3.25;;
12407;SDS011;6268;48.188;17.134;2022-08-01T10:22:23;3.67;;;3.42;;
12407;SDS011;6268;48.188;17.134;2022-08-01T10:25:00;3.45;;;3.25;;
12407;SDS011;6268;48.188;17.134;2022-08-01T10:27:32;3.15;;;2.95;;
12407;SDS011;6268;48.188;17.134;2022-08-01T10:30:05;3.60;;;3.40;;
12407;SDS011;6268;48.188;17.134;2022-08-01T10:32:47;3.15;;;2.95;;
12407;SDS011;6268;48.188;17.134;2022-08-01T10:35:18;3.00;;;2.80;;
12407;SDS011;6268;48.188;17.134;2022-08-01T10:38:08;2.50;;;2.40;;
12407;SDS011;6268;48.188;17.134;2022-08-01T10:40:39;3.03;;;2.70;;
12407;SDS011;6268;48.188;17.134;2022-08-01T10:43:09;3.20;;;2.90;;
12407;SDS011;6268;48.188;17.134;2022-08-01T10:45:47;2.90;;;2.70;;
12407;SDS011;6268;48.188;17.134;2022-08-01T10:48:19;3.22;;;2.97;;
12407;SDS011;6268;48.188;17.134;2022-08-01T10:50:57;3.35;;;3.10;;
12407;SDS011;6268;48.188;17.134;2022-08-01T10:53:29;3.70;;;3.40;;
12407;SDS011;6268;48.188;17.134;2022-08-01T10:56:08;3.28;;;2.70;;
12407;SDS011;6268;48.188;17.134;2022-08-01T10:58:42;3.17;;;2.60;;
12407;SDS011;6268;48.188;17.134;2022-08-01T11:01:21;3.42;;;2.58;;
12407;SDS011;6268;48.188;17.134;2022-08-01T11:03:57;2.72;;;2.53;;
12407;SDS011;6268;48.188;17.134;2022-08-01T11:09:39;2.80;;;2.58;;
12407;SDS011;6268;48.188;17.134;2022-08-01T11:12:17;2.67;;;2.47;;
12407;SDS011;6268;48.188;17.134;2022-08-01T11:17:59;2.50;;;2.33;;
12407;SDS011;6268;48.188;17.134;2022-08-01T11:20:32;4.10;;;2.50;;
12407;SDS011;6268;48.188;17.134;2022-08-01T11:23:18;3.05;;;2.55;;
12407;SDS011;6268;48.188;17.134;2022-08-01T11:26:06;2.80;;;2.55;;
12407;SDS011;6268;48.188;17.134;2022-08-01T11:28:43;12.70;;;11.63;;
12407;SDS011;6268;48.188;17.134;2022-08-01T11:31:34;2.53;;;2.42;;
12407;SDS011;6268;48.188;17.134;2022-08-01T11:34:03;3.08;;;2.22;;
12407;SDS011;6268;48.188;17.134;2022-08-01T11:36:33;2.97;;;2.28;;
12407;SDS011;6268;48.188;17.134;2022-08-01T11:39:24;2.40;;;2.30;;
12407;SDS011;6268;48.188;17.134;2022-08-01T11:41:54;2.88;;;2.60;;
12407;SDS011;6268;48.188;17.134;2022-08-01T11:44:48;2.65;;;2.45;;
12407;SDS011;6268;48.188;17.134;2022-08-01T11:47:18;2.50;;;2.30;;
12407;SDS011;6268;48.188;17.134;2022-08-01T11:52:59;2.83;;;2.63;;
12407;SDS011;6268;48.188;17.134;2022-08-01T11:55:32;3.28;;;3.17;;
12407;SDS011;6268;48.188;17.134;2022-08-01T11:58:03;3.90;;;2.70;;
12407;SDS011;6268;48.188;17.134;2022-08-01T12:00:55;6.32;;;2.70;;
12407;SDS011;6268;48.188;17.134;2022-08-01T12:03:26;3.70;;;2.35;;
12407;SDS011;6268;48.188;17.134;2022-08-01T12:05:59;2.90;;;2.55;;
12407;SDS011;6268;48.188;17.134;2022-08-01T12:08:29;6.82;;;5.97;;
12407;SDS011;6268;48.188;17.134;2022-08-01T12:11:03;6.47;;;5.97;;
12407;SDS011;6268;48.188;17.134;2022-08-01T12:13:39;3.17;;;2.95;;
12407;SDS011;6268;48.188;17.134;2022-08-01T12:16:10;4.28;;;3.97;;
12407;SDS011;6268;48.188;17.134;2022-08-01T12:18:40;2.58;;;2.47;;
12407;SDS011;6268;48.188;17.134;2022-08-01T12:21:10;2.50;;;2.30;;
12407;SDS011;6268;48.188;17.134;2022-08-01T12:23:38;2.90;;;2.72;;
12407;SDS011;6268;48.188;17.134;2022-08-01T12:26:09;2.25;;;2.15;;
12407;SDS011;6268;48.188;17.134;2022-08-01T12:28:57;2.80;;;2.60;;
12407;SDS011;6268;48.188;17.134;2022-08-01T12:31:32;3.10;;;2.90;;
12407;SDS011;6268;48.188;17.134;2022-08-01T12:36:55;2.38;;;2.28;;
12407;SDS011;6268;48.188;17.134;2022-08-01T12:39:29;2.70;;;2.33;;
12407;SDS011;6268;48.188;17.134;2022-08-01T12:42:07;2.22;;;2.10;;
12407;SDS011;6268;48.188;17.134;2022-08-01T12:44:37;2.80;;;2.63;;
12407;SDS011;6268;48.188;17.134;2022-08-01T12:47:07;2.58;;;2.33;;
12407;SDS011;6268;48.188;17.134;2022-08-01T12:49:36;2.95;;;2.00;;
12407;SDS011;6268;48.188;17.134;2022-08-01T12:52:06;2.38;;;2.17;;
12407;SDS011;6268;48.188;17.134;2022-08-01T12:57:37;2.00;;;1.90;;
12407;SDS011;6268;48.188;17.134;2022-08-01T13:00:09;2.35;;;2.20;;
12407;SDS011;6268;48.188;17.134;2022-08-01T13:02:46;2.35;;;2.15;;
12407;SDS011;6268;48.188;17.134;2022-08-01T13:05:16;2.35;;;2.25;;
12407;SDS011;6268;48.188;17.134;2022-08-01T13:07:46;3.63;;;3.42;;
12407;SDS011;6268;48.188;17.134;2022-08-01T13:10:24;3.10;;;2.78;;
12407;SDS011;6268;48.188;17.134;2022-08-01T13:12:58;2.33;;;2.22;;
12407;SDS011;6268;48.188;17.134;2022-08-01T13:15:28;2.40;;;2.20;;
12407;SDS011;6268;48.188;17.134;2022-08-01T13:17:59;2.83;;;2.58;;
12407;SDS011;6268;48.188;17.134;2022-08-01T13:20:50;2.72;;;2.60;;
12407;SDS011;6268;48.188;17.134;2022-08-01T13:23:36;7.95;;;2.72;;
12407;SDS011;6268;48.188;17.134;2022-08-01T13:26:37;5.93;;;2.53;;
12407;SDS011;6268;48.188;17.134;2022-08-01T13:29:09;3.47;;;2.58;;
12407;SDS011;6268;48.188;17.134;2022-08-01T13:31:40;3.75;;;2.28;;
12407;SDS011;6268;48.188;17.134;2022-08-01T13:34:10;4.10;;;2.60;;
12407;SDS011;6268;48.188;17.134;2022-08-01T13:36:39;3.00;;;2.80;;
12407;SDS011;6268;48.188;17.134;2022-08-01T13:39:14;4.28;;;3.20;;
12407;SDS011;6268;48.188;17.134;2022-08-01T13:42:01;2.78;;;2.60;;
12407;SDS011;6268;48.188;17.134;2022-08-01T13:44:32;3.33;;;3.03;;
12407;SDS011;6268;48.188;17.134;2022-08-01T13:47:01;3.20;;;3.00;;
12407;SDS011;6268;48.188;17.134;2022-08-01T13:49:41;3.00;;;2.78;;
12407;SDS011;6268;48.188;17.134;2022-08-01T13:52:10;3.95;;;2.90;;
12407;SDS011;6268;48.188;17.134;2022-08-01T13:54:39;2.67;;;2.47;;
12407;SDS011;6268;48.188;17.134;2022-08-01T13:57:07;3.58;;;2.58;;
12407;SDS011;6268;48.188;17.134;2022-08-01T13:59:38;3.60;;;2.75;;
12407;SDS011;6268;48.188;17.134;2022-08-01T14:02:07;3.80;;;3.08;;
12407;SDS011;6268;48.188;17.134;2022-08-01T14:04:36;4.50;;;4.03;;
12407;SDS011;6268;48.188;17.134;2022-08-01T14:07:04;6.05;;;3.38;;
12407;SDS011;6268;48.188;17.134;2022-08-01T14:09:39;5.45;;;4.90;;
12407;SDS011;6268;48.188;17.134;2022-08-01T14:12:29;5.35;;;4.88;;
12407;SDS011;6268;48.188;17.134;2022-08-01T14:14:59;4.88;;;3.80;;
12407;SDS011;6268;48.188;17.134;2022-08-01T14:17:28;4.90;;;2.75;;
12407;SDS011;6268;48.188;17.134;2022-08-01T14:20:03;4.80;;;2.30;;
12407;SDS011;6268;48.188;17.134;2022-08-01T14:22:33;3.80;;;3.50;;
12407;SDS011;6268;48.188;17.134;2022-08-01T14:25:01;3.20;;;2.85;;
12407;SDS011;6268;48.188;17.134;2022-08-01T14:27:32;3.63;;;3.03;;
12407;SDS011;6268;48.188;17.134;2022-08-01T14:30:04;2.55;;;2.45;;
12407;SDS011;6268;48.188;17.134;2022-08-01T14:32:35;2.47;;;2.13;;
12407;SDS011;6268;48.188;17.134;2022-08-01T14:35:04;2.78;;;1.88;;
12407;SDS011;6268;48.188;17.134;2022-08-01T14:37:34;2.63;;;2.40;;
12407;SDS011;6268;48.188;17.134;2022-08-01T14:40:05;2.25;;;2.15;;
12407;SDS011;6268;48.188;17.134;2022-08-01T14:42:37;3.03;;;2.53;;
12407;SDS011;6268;48.188;17.134;2022-08-01T14:45:09;3.28;;;3.08;;
12407;SDS011;6268;48.188;17.134;2022-08-01T14:47:40;3.00;;;2.80;;
12407;SDS011;6268;48.188;17.134;2022-08-01T14:50:11;2.97;;;2.78;;
12407;SDS011;6268;48.188;17.134;2022-08-01T14:52:42;2.42;;;2.33;;
12407;SDS011;6268;48.188;17.134;2022-08-01T14:55:11;2.35;;;2.25;;
12407;SDS011;6268;48.188;17.134;2022-08-01T14:57:41;3.47;;;3.15;;
12407;SDS011;6268;48.188;17.134;2022-08-01T15:00:11;4.10;;;2.58;;
12407;SDS011;6268;48.188;17.134;2022-08-01T15:02:41;3.45;;;3.22;;
12407;SDS011;6268;48.188;17.134;2022-08-01T15:05:11;3.03;;;2.83;;
12407;SDS011;6268;48.188;17.134;2022-08-01T15:07:40;2.45;;;2.35;;
12407;SDS011;6268;48.188;17.134;2022-08-01T15:10:19;2.72;;;2.55;;
12407;SDS011;6268;48.188;17.134;2022-08-01T15:12:49;2.47;;;2.30;;
12407;SDS011;6268;48.188;17.134;2022-08-01T15:15:19;2.72;;;2.30;;
12407;SDS011;6268;48.188;17.134;2022-08-01T15:17:48;6.20;;;5.60;;
12407;SDS011;6268;48.188;17.134;2022-08-01T15:20:19;3.75;;;3.22;;
12407;SDS011;6268;48.188;17.134;2022-08-01T15:22:48;4.70;;;3.35;;
12407;SDS011;6268;48.188;17.134;2022-08-01T15:25:16;2.85;;;2.60;;
12407;SDS011;6268;48.188;17.134;2022-08-01T15:27:45;3.22;;;3.03;;
12407;SDS011;6268;48.188;17.134;2022-08-01T15:30:14;4.40;;;2.90;;
12407;SDS011;6268;48.188;17.134;2022-08-01T15:32:54;2.42;;;2.33;;
12407;SDS011;6268;48.188;17.134;2022-08-01T15:35:22;5.68;;;5.28;;